createdAt,value
2023-04-23T00:01:30.423Z,22.70
2023-04-23T00:06:34.239Z,20.57
2023-04-23T00:11:37.383Z,20.13
2023-04-23T00:16:41.202Z,17.58
2023-04-23T00:21:44.219Z,22.33
2023-04-23T00:26:46.951Z,21.15
2023-04-23T00:31:49.873Z,20.93
2023-04-23T00:36:52.945Z,22.92
2023-04-23T00:41:55.820Z,21.17
2023-04-23T00:46:59.335Z,23.25
2023-04-23T00:52:02.494Z,21.63
2023-04-23T00:57:05.683Z,19.87
2023-04-23T01:02:08.434Z,19.67
2023-04-23T01:07:13.155Z,21.17
2023-04-23T01:12:17.058Z,23.50
2023-04-23T01:17:19.746Z,24.80
2023-04-23T01:22:22.788Z,25.10
2023-04-23T01:27:25.548Z,24.35
2023-04-23T01:32:28.319Z,21.92
2023-04-23T01:37:32.290Z,25.27
2023-04-23T01:42:35.093Z,22.85
2023-04-23T01:47:37.879Z,29.60
2023-04-23T01:52:41.500Z,28.50
2023-04-23T01:57:44.283Z,23.83
2023-04-23T02:02:47.188Z,25.90
2023-04-23T02:07:52.467Z,28.08
2023-04-23T02:12:55.684Z,26.67
2023-04-23T02:17:58.296Z,25.02
2023-04-23T02:23:01.544Z,26.58
2023-04-23T02:28:07.241Z,27.50
2023-04-23T02:33:09.896Z,23.00
2023-04-23T02:38:12.539Z,25.27
2023-04-23T02:43:15.299Z,25.50
2023-04-23T02:48:18.322Z,33.33
2023-04-23T02:53:21.144Z,31.13
2023-04-23T02:58:24.465Z,26.42
2023-04-23T03:03:32.514Z,29.77
2023-04-23T03:08:37.003Z,30.60
2023-04-23T03:13:39.751Z,31.83
2023-04-23T03:18:42.585Z,24.40
2023-04-23T03:23:45.569Z,24.08
2023-04-23T03:28:48.253Z,23.87
2023-04-23T03:33:50.943Z,28.67
2023-04-23T03:39:00.114Z,28.05
2023-04-23T03:44:08.619Z,29.73
2023-04-23T03:49:17.405Z,31.30
2023-04-23T03:54:20.635Z,24.03
2023-04-23T03:59:52.838Z,27.77
2023-04-23T04:04:56.737Z,31.10
2023-04-23T04:10:03.311Z,31.50
2023-04-23T04:15:06.745Z,32.58
2023-04-23T04:20:10.788Z,29.03
2023-04-23T04:25:13.596Z,24.38
2023-04-23T04:30:16.528Z,24.08
2023-04-23T04:35:19.422Z,24.70
2023-04-23T04:40:22.247Z,25.58
2023-04-23T04:45:26.093Z,30.40
2023-04-23T04:50:29.112Z,28.27
2023-04-23T04:55:31.778Z,27.85
2023-04-23T05:00:34.721Z,28.95
2023-04-23T05:05:37.584Z,28.83
2023-04-23T05:10:40.290Z,30.43
2023-04-23T05:15:43.206Z,31.38
2023-04-23T05:20:46.035Z,25.08
2023-04-23T05:25:51.043Z,28.27
2023-04-23T05:30:54.147Z,30.73
2023-04-23T05:35:57.616Z,22.67
2023-04-23T05:41:00.482Z,27.50
2023-04-23T05:46:04.983Z,27.38
2023-04-23T05:51:07.808Z,28.60
2023-04-23T05:56:10.655Z,29.85
2023-04-23T06:01:13.350Z,26.73
2023-04-23T06:06:16.012Z,28.65
2023-04-23T06:11:18.966Z,27.55
2023-04-23T06:16:21.710Z,26.85
2023-04-23T06:21:24.618Z,27.48
2023-04-23T06:26:27.587Z,26.53
2023-04-23T06:31:35.013Z,25.35
2023-04-23T06:36:38.011Z,22.77
2023-04-23T06:41:40.835Z,19.98
2023-04-23T06:46:55.713Z,19.05
2023-04-23T06:51:58.645Z,15.53
2023-04-23T06:57:01.706Z,15.85
2023-04-23T07:02:04.535Z,17.73
2023-04-23T07:07:07.339Z,15.07
2023-04-23T07:12:10.023Z,16.45
2023-04-23T07:17:12.930Z,14.20
2023-04-23T07:22:16.109Z,12.63
2023-04-23T07:27:19.909Z,13.85
2023-04-23T07:32:26.395Z,13.15
2023-04-23T07:37:29.281Z,13.60
2023-04-23T07:42:32.656Z,12.80
2023-04-23T07:47:35.376Z,10.82
2023-04-23T07:52:38.162Z,13.07
2023-04-23T07:57:40.971Z,11.10
2023-04-23T08:02:43.783Z,11.45
2023-04-23T08:07:46.553Z,12.73
2023-04-23T08:12:49.351Z,10.15
2023-04-23T08:17:52.174Z,12.65
2023-04-23T08:22:56.005Z,9.25
2023-04-23T08:27:59.486Z,10.82
2023-04-23T08:33:02.687Z,8.40
2023-04-23T08:38:05.616Z,10.13
2023-04-23T08:43:16.930Z,6.57
2023-04-23T08:48:20.349Z,6.82
2023-04-23T08:53:28.422Z,6.70
2023-04-23T08:58:31.631Z,8.87
2023-04-23T09:03:34.712Z,6.25
2023-04-23T09:08:39.409Z,6.50
2023-04-23T09:13:42.225Z,7.28
2023-04-23T09:18:45.196Z,7.55
2023-04-23T09:23:52.373Z,6.23
2023-04-23T09:28:55.177Z,6.75
2023-04-23T09:33:58.728Z,5.78
2023-04-23T09:39:01.408Z,7.20
2023-04-23T09:44:04.197Z,6.47
2023-04-23T09:49:10.862Z,6.63
2023-04-23T09:54:14.599Z,6.90
2023-04-23T10:04:36.823Z,6.07
2023-04-23T10:09:42.240Z,6.50
2023-04-23T10:14:47.011Z,6.10
2023-04-23T10:19:51.902Z,8.82
2023-04-23T10:24:58.985Z,5.53
2023-04-23T10:30:04.128Z,6.63
2023-04-23T10:35:09.800Z,6.43
2023-04-23T10:40:15.469Z,5.90
2023-04-23T10:45:25.706Z,5.93
2023-04-23T10:50:30.155Z,6.78
2023-04-23T10:55:33.432Z,6.45
2023-04-23T11:00:47.039Z,5.43
2023-04-23T11:05:49.787Z,6.40
2023-04-23T11:10:58.734Z,6.53
2023-04-23T11:16:23.858Z,6.20
2023-04-23T11:22:01.282Z,5.85
2023-04-23T11:27:09.135Z,6.45
2023-04-23T11:32:13.811Z,6.67
2023-04-23T11:37:18.629Z,5.60
2023-04-23T11:42:21.669Z,6.40
2023-04-23T11:47:26.884Z,6.68
2023-04-23T11:52:29.653Z,7.68
2023-04-23T11:57:36.582Z,7.00
2023-04-23T12:02:39.437Z,6.85
2023-04-23T12:07:42.364Z,4.93
2023-04-23T12:12:45.124Z,5.80
2023-04-23T12:18:10.459Z,8.18
2023-04-23T12:23:13.247Z,6.50
2023-04-23T12:28:15.954Z,6.22
2023-04-23T12:33:19.287Z,7.28
2023-04-23T12:38:24.496Z,7.30
2023-04-23T12:43:28.026Z,6.57
2023-04-23T12:48:31.017Z,6.83
2023-04-23T12:53:33.794Z,5.70
2023-04-23T12:58:36.568Z,6.30
2023-04-23T13:03:39.346Z,5.78
2023-04-23T13:08:42.039Z,11.80
2023-04-23T13:13:44.955Z,5.97
2023-04-23T13:18:47.764Z,7.50
2023-04-23T13:23:51.190Z,6.65
2023-04-23T13:28:53.835Z,6.25
2023-04-23T13:33:56.819Z,7.38
2023-04-23T13:38:59.635Z,6.23
2023-04-23T13:44:02.369Z,5.95
2023-04-23T13:49:04.957Z,6.18
2023-04-23T13:54:07.673Z,5.93
2023-04-23T13:59:18.790Z,6.68
2023-04-23T14:04:25.535Z,5.53
2023-04-23T14:09:30.244Z,6.32
2023-04-23T14:14:33.217Z,7.00
2023-04-23T14:19:38.108Z,5.30
2023-04-23T14:24:46.865Z,6.80
2023-04-23T14:29:58.497Z,6.00
2023-04-23T14:35:01.574Z,7.80
2023-04-23T14:40:04.683Z,7.43
2023-04-23T14:45:07.907Z,6.45
2023-04-23T14:50:11.276Z,5.93
2023-04-23T14:55:14.060Z,7.00
2023-04-23T15:00:18.059Z,6.63
2023-04-23T15:05:20.765Z,4.95
2023-04-23T15:10:23.588Z,7.18
2023-04-23T15:15:37.006Z,6.50
2023-04-23T15:20:46.403Z,5.57
2023-04-23T15:25:53.267Z,5.57
2023-04-23T15:30:56.065Z,6.07
2023-04-23T15:36:00.012Z,5.68
2023-04-23T15:41:03.044Z,6.43
2023-04-23T15:46:05.988Z,7.10
2023-04-23T15:51:10.014Z,6.80
2023-04-23T15:56:12.748Z,6.75
2023-04-23T16:01:17.258Z,5.80
2023-04-23T16:06:20.095Z,6.25
2023-04-23T16:11:23.393Z,5.73
2023-04-23T16:16:26.322Z,5.15
2023-04-23T16:21:29.203Z,23.15
2023-04-23T16:26:32.057Z,11.85
2023-04-23T16:31:35.095Z,18.88
2023-04-23T16:36:38.058Z,12.73
2023-04-23T16:41:40.915Z,7.53
2023-04-23T16:46:43.895Z,12.07
2023-04-23T16:51:51.377Z,8.18
2023-04-23T16:56:55.458Z,8.30
2023-04-23T17:01:58.224Z,6.37
2023-04-23T17:07:01.509Z,6.50
2023-04-23T17:12:04.449Z,7.10
2023-04-23T17:17:07.156Z,6.00
2023-04-23T17:22:10.991Z,8.38
2023-04-23T17:27:13.747Z,6.77
2023-04-23T17:32:16.720Z,6.88
2023-04-23T17:37:19.936Z,7.22
2023-04-23T17:42:22.827Z,9.02
2023-04-23T17:47:26.865Z,10.27
2023-04-23T17:52:29.522Z,7.57
2023-04-23T17:57:32.354Z,7.35
2023-04-23T18:02:40.484Z,8.23
2023-04-23T18:07:44.477Z,10.15
2023-04-23T18:12:47.207Z,7.63
2023-04-23T18:17:50.638Z,9.10
2023-04-23T18:22:54.615Z,8.18
2023-04-23T18:27:57.373Z,9.55
2023-04-23T18:33:25.132Z,8.32
2023-04-23T18:38:43.207Z,10.75
2023-04-23T18:43:45.933Z,10.83
2023-04-23T18:49:00.919Z,12.35
2023-04-23T18:54:03.861Z,10.98
2023-04-23T18:59:06.601Z,8.02
2023-04-23T19:04:10.017Z,11.98
2023-04-23T19:09:13.241Z,9.00
2023-04-23T19:14:19.820Z,9.38
2023-04-23T19:19:24.577Z,8.65
2023-04-23T19:24:27.584Z,8.55
2023-04-23T19:29:30.328Z,9.32
2023-04-23T19:34:33.238Z,9.33
2023-04-23T19:39:36.207Z,8.23
2023-04-23T19:44:39.308Z,9.27
2023-04-23T19:49:42.342Z,8.32
2023-04-23T19:54:49.224Z,9.65
2023-04-23T19:59:52.084Z,10.00
2023-04-23T20:04:54.803Z,9.48
2023-04-23T20:09:57.876Z,9.68
2023-04-23T20:15:00.720Z,8.60
2023-04-23T20:20:04.920Z,9.15
2023-04-23T20:25:08.398Z,9.70
2023-04-23T20:30:14.149Z,8.70
2023-04-23T20:35:17.063Z,9.80
2023-04-23T20:40:20.052Z,9.35
2023-04-23T20:45:22.812Z,8.93
2023-04-23T20:50:25.930Z,10.73
2023-04-23T20:55:28.695Z,10.90
2023-04-23T21:00:31.371Z,9.00
2023-04-23T21:05:34.324Z,9.85
2023-04-23T21:10:39.584Z,8.88
2023-04-23T21:15:42.574Z,11.73
2023-04-23T21:20:46.295Z,10.60
2023-04-23T21:25:48.997Z,12.80
2023-04-23T21:30:53.828Z,10.10
2023-04-23T21:35:56.531Z,11.98
2023-04-23T21:40:59.610Z,14.53
2023-04-23T21:46:02.501Z,12.88
2023-04-23T21:51:05.302Z,10.63
2023-04-23T21:56:08.033Z,12.30
2023-04-23T22:01:11.075Z,13.82
2023-04-23T22:06:13.988Z,13.40
2023-04-23T22:11:19.906Z,10.52
2023-04-23T22:16:28.501Z,12.90
2023-04-23T22:21:33.144Z,13.50
2023-04-23T22:26:36.491Z,10.40
2023-04-23T22:31:39.584Z,9.10
2023-04-23T22:36:43.658Z,12.95
2023-04-23T22:41:46.555Z,10.40
2023-04-23T22:46:49.999Z,10.68
2023-04-23T22:51:52.804Z,9.45
2023-04-23T22:56:55.914Z,10.23
2023-04-23T23:01:58.649Z,10.80
2023-04-23T23:07:01.658Z,7.88
2023-04-23T23:12:05.159Z,9.38
2023-04-23T23:17:07.912Z,9.48
2023-04-23T23:22:10.740Z,9.67
2023-04-23T23:27:13.588Z,8.02
2023-04-23T23:32:16.743Z,9.95
2023-04-23T23:37:19.583Z,9.73
2023-04-23T23:42:22.284Z,7.40
2023-04-23T23:47:25.066Z,10.30
2023-04-23T23:52:27.936Z,7.50
2023-04-23T23:57:30.782Z,8.60
